Time;durP1;ratioP1;P1;durP2;ratioP2;P2;SDS_P1;SDS_P2;PMS_P1;PMS_P2;Temp;Humidity;BMP_temperature;BMP_pressure;BME280_temperature;BME280_humidity;BME280_pressure;Samples;Min_cycle;Max_cycle;Signal;HPM_P1;HPM_P2
2023/10/05 00:02:56;;;;;;;8.80;4.53;;;;;;;;;;5093641;28;20449;-59
2023/10/05 00:05:23;;;;;;;5.63;5.03;;;;;;;;;;5093743;28;20442;-58
2023/10/05 00:07:50;;;;;;;8.97;4.80;;;;;;;;;;5093970;28;20941;-59
2023/10/05 00:10:17;;;;;;;5.00;4.10;;;;;;;;;;5093888;28;20438;-59
2023/10/05 00:12:47;;;;;;;5.27;4.73;;;;;;;;;;5093639;28;20449;-58
2023/10/05 00:15:14;;;;;;;6.53;4.93;;;;;;;;;;5093581;28;20500;-59
2023/10/05 00:17:41;;;;;;;7.60;4.80;;;;;;;;;;5093518;28;20499;-59
2023/10/05 00:20:10;;;;;;;5.90;4.03;;;;;;;;;;5093451;28;20451;-59
2023/10/05 00:22:40;;;;;;;6.20;4.90;;;;;;;;;;5093719;28;20879;-59
2023/10/05 00:25:09;;;;;;;6.10;4.43;;;;;;;;;;5093631;28;20511;-58
2023/10/05 00:27:37;;;;;;;9.73;4.53;;;;;;;;;;5093535;28;20496;-59
2023/10/05 00:30:06;;;;;;;4.53;3.63;;;;;;;;;;5093161;28;20477;-59
2023/10/05 00:32:36;;;;;;;8.50;4.40;;;;;;;;;;5093185;28;20446;-59
2023/10/05 00:35:16;;;;;;;4.40;3.90;;;;;;;;;;5093341;28;20474;-59
2023/10/05 00:37:45;;;;;;;9.80;4.03;;;;;;;;;;5093348;28;20500;-59
2023/10/05 00:40:24;;;;;;;12.23;5.13;;;;;;;;;;5093289;28;20442;-59
2023/10/05 00:42:51;;;;;;;7.80;5.00;;;;;;;;;;5093147;28;20504;-58
2023/10/05 00:45:24;;;;;;;4.50;3.80;;;;;;;;;;5093377;28;20443;-59
2023/10/05 00:47:52;;;;;;;6.40;3.90;;;;;;;;;;5093356;28;20455;-58
2023/10/05 00:50:19;;;;;;;6.27;4.43;;;;;;;;;;5093195;28;20445;-58
2023/10/05 00:52:51;;;;;;;7.43;3.97;;;;;;;;;;5093164;28;20526;-59
2023/10/05 00:55:18;;;;;;;7.20;4.60;;;;;;;;;;5092995;28;21038;-58
2023/10/05 00:57:45;;;;;;;7.50;4.10;;;;;;;;;;5093290;28;20537;-58
2023/10/05 01:00:26;;;;;;;6.07;4.73;;;;;;;;;;5092934;28;21001;-58
2023/10/05 01:03:25;;;;;;;6.07;4.03;;;;;;;;;;5093438;28;20838;-59
2023/10/05 01:06:10;;;;;;;5.67;3.50;;;;;;;;;;5092931;28;20446;-58
2023/10/05 01:08:48;;;;;;;10.97;4.30;;;;;;;;;;5093108;28;20442;-59
2023/10/05 01:11:15;;;;;;;8.00;4.10;;;;;;;;;;5094224;28;20451;-59
2023/10/05 01:13:42;;;;;;;6.23;3.77;;;;;;;;;;5097144;28;20442;-58
2023/10/05 01:16:16;;;;;;;7.60;4.50;;;;;;;;;;5096916;28;20478;-59
2023/10/05 01:18:45;;;;;;;8.30;4.20;;;;;;;;;;5097197;28;20437;-58
2023/10/05 01:21:12;;;;;;;7.67;3.50;;;;;;;;;;5097132;28;20539;-59
2023/10/05 01:23:42;;;;;;;9.20;4.03;;;;;;;;;;5097006;28;20474;-59
2023/10/05 01:26:11;;;;;;;6.00;3.80;;;;;;;;;;5096959;28;20442;-58
2023/10/05 01:28:40;;;;;;;7.63;4.10;;;;;;;;;;5096498;28;20466;-59
2023/10/05 01:31:12;;;;;;;7.20;4.43;;;;;;;;;;5096729;28;20442;-59
2023/10/05 01:33:39;;;;;;;6.40;3.73;;;;;;;;;;5096912;28;20450;-58
2023/10/05 01:36:06;;;;;;;9.17;4.90;;;;;;;;;;5096641;28;21007;-58
2023/10/05 01:38:37;;;;;;;5.47;4.20;;;;;;;;;;5096447;28;20449;-58
2023/10/05 01:41:06;;;;;;;5.23;3.97;;;;;;;;;;5096631;28;20453;-59
2023/10/05 01:43:35;;;;;;;4.33;3.93;;;;;;;;;;5096455;28;20446;-58
2023/10/05 01:46:04;;;;;;;5.63;4.40;;;;;;;;;;5096341;28;20941;-58
2023/10/05 01:48:31;;;;;;;4.73;3.80;;;;;;;;;;5096615;28;20449;-58
2023/10/05 01:51:06;;;;;;;8.63;4.37;;;;;;;;;;5096672;28;20446;-59
2023/10/05 01:53:33;;;;;;;7.93;3.70;;;;;;;;;;5096374;28;20809;-59
2023/10/05 01:56:00;;;;;;;6.90;3.73;;;;;;;;;;5096125;28;20473;-58
2023/10/05 01:58:29;;;;;;;8.33;4.07;;;;;;;;;;5096438;28;20805;-59
2023/10/05 02:00:58;;;;;;;5.50;3.70;;;;;;;;;;5096312;28;20446;-59
2023/10/05 02:03:25;;;;;;;7.47;3.43;;;;;;;;;;5096143;28;21062;-59
2023/10/05 02:05:53;;;;;;;5.97;4.00;;;;;;;;;;5096319;28;20863;-59
2023/10/05 02:08:21;;;;;;;6.10;3.53;;;;;;;;;;5095953;28;20863;-59
2023/10/05 02:10:50;;;;;;;5.33;3.50;;;;;;;;;;5096224;28;20533;-59
2023/10/05 02:13:17;;;;;;;7.63;3.63;;;;;;;;;;5096043;28;20542;-59
2023/10/05 02:15:54;;;;;;;5.97;3.73;;;;;;;;;;5095953;28;20474;-59
2023/10/05 02:18:24;;;;;;;5.03;3.20;;;;;;;;;;5095955;28;20545;-59
2023/10/05 02:21:05;;;;;;;7.20;3.97;;;;;;;;;;5095812;28;20513;-59
2023/10/05 02:23:38;;;;;;;8.70;3.90;;;;;;;;;;5095891;28;20476;-59
2023/10/05 02:26:10;;;;;;;4.20;3.20;;;;;;;;;;5095892;28;20478;-59
2023/10/05 02:28:39;;;;;;;6.73;3.37;;;;;;;;;;5095703;28;20883;-59
2023/10/05 02:31:12;;;;;;;4.07;3.07;;;;;;;;;;5095697;28;20865;-59
2023/10/05 02:33:40;;;;;;;5.13;3.30;;;;;;;;;;5095871;28;20533;-59
2023/10/05 02:36:14;;;;;;;3.87;3.30;;;;;;;;;;5095721;28;20910;-59
2023/10/05 02:38:49;;;;;;;5.77;4.13;;;;;;;;;;5095698;28;20856;-59
2023/10/05 02:41:17;;;;;;;6.10;3.53;;;;;;;;;;5095529;28;20975;-59
2023/10/05 02:43:51;;;;;;;10.20;3.87;;;;;;;;;;5095363;28;20815;-59
2023/10/05 02:46:20;;;;;;;8.60;4.00;;;;;;;;;;5095640;28;20529;-59
2023/10/05 02:48:48;;;;;;;10.47;3.83;;;;;;;;;;5095534;28;20537;-59
2023/10/05 02:51:18;;;;;;;4.97;3.73;;;;;;;;;;5095430;28;20439;-59
2023/10/05 02:53:46;;;;;;;5.77;3.10;;;;;;;;;;5095211;28;20886;-59
2023/10/05 02:56:20;;;;;;;5.20;3.70;;;;;;;;;;5095092;28;20554;-59
2023/10/05 02:58:47;;;;;;;6.30;3.40;;;;;;;;;;5095396;28;20453;-59
2023/10/05 03:01:15;;;;;;;6.00;3.67;;;;;;;;;;5095238;28;20452;-59
2023/10/05 03:03:44;;;;;;;6.97;3.93;;;;;;;;;;5095171;28;20447;-59
2023/10/05 03:06:11;;;;;;;5.00;4.10;;;;;;;;;;5095048;28;20861;-59
2023/10/05 03:08:39;;;;;;;6.70;3.80;;;;;;;;;;5095045;28;20492;-59
2023/10/05 03:11:08;;;;;;;6.40;3.10;;;;;;;;;;5095088;28;20457;-59
2023/10/05 03:13:36;;;;;;;7.10;4.30;;;;;;;;;;5095165;28;20472;-59
2023/10/05 03:16:06;;;;;;;9.67;3.20;;;;;;;;;;5094702;28;20470;-59
2023/10/05 03:18:37;;;;;;;6.73;3.70;;;;;;;;;;5094677;28;20533;-59
2023/10/05 03:21:09;;;;;;;6.20;3.33;;;;;;;;;;5094601;28;20930;-58
2023/10/05 03:23:36;;;;;;;8.97;4.13;;;;;;;;;;5094702;28;20443;-58
2023/10/05 03:26:03;;;;;;;12.67;3.80;;;;;;;;;;5094517;28;20562;-58
2023/10/05 03:28:33;;;;;;;7.37;3.70;;;;;;;;;;5094393;28;20466;-59
2023/10/05 03:31:06;;;;;;;8.57;3.60;;;;;;;;;;5094303;28;20787;-58
2023/10/05 03:33:33;;;;;;;6.77;3.53;;;;;;;;;;5093613;28;20449;-59
2023/10/05 03:36:06;;;;;;;5.60;3.80;;;;;;;;;;5094339;28;20523;-58
2023/10/05 03:38:35;;;;;;;6.60;3.60;;;;;;;;;;5094315;28;20503;-58
2023/10/05 03:41:04;;;;;;;6.60;3.90;;;;;;;;;;5094211;28;20529;-58
2023/10/05 03:43:32;;;;;;;9.10;3.70;;;;;;;;;;5094119;28;20454;-60
2023/10/05 03:46:07;;;;;;;7.10;4.30;;;;;;;;;;5094172;28;20859;-58
2023/10/05 03:48:38;;;;;;;6.17;4.20;;;;;;;;;;5094313;28;20452;-58
2023/10/05 03:51:08;;;;;;;4.63;2.83;;;;;;;;;;5094259;28;20859;-58
2023/10/05 03:53:36;;;;;;;5.40;3.70;;;;;;;;;;5094398;28;20453;-58
2023/10/05 03:56:05;;;;;;;7.47;3.50;;;;;;;;;;5093923;28;20561;-58
2023/10/05 03:58:34;;;;;;;10.27;3.80;;;;;;;;;;5093997;28;20486;-58
2023/10/05 04:01:04;;;;;;;9.17;4.37;;;;;;;;;;5093842;28;20526;-58
2023/10/05 04:03:31;;;;;;;7.07;3.40;;;;;;;;;;5094036;28;20755;-58
2023/10/05 04:05:58;;;;;;;6.97;3.63;;;;;;;;;;5093954;28;20442;-58
2023/10/05 04:08:27;;;;;;;6.67;3.93;;;;;;;;;;5094160;28;20442;-59
2023/10/05 04:10:59;;;;;;;6.90;3.63;;;;;;;;;;5093567;28;20503;-57
2023/10/05 04:13:26;;;;;;;7.03;3.40;;;;;;;;;;5093686;28;20451;-57
2023/10/05 04:15:53;;;;;;;6.43;3.77;;;;;;;;;;5093769;28;20525;-58
2023/10/05 04:18:21;;;;;;;5.33;3.53;;;;;;;;;;5093726;28;20446;-58
2023/10/05 04:20:48;;;;;;;14.07;4.47;;;;;;;;;;5093604;28;20438;-58
2023/10/05 04:23:18;;;;;;;5.27;3.80;;;;;;;;;;5093513;28;20443;-58
2023/10/05 04:25:47;;;;;;;3.97;3.07;;;;;;;;;;5093535;28;20489;-58
2023/10/05 04:28:15;;;;;;;6.70;4.67;;;;;;;;;;5093476;28;20824;-58
2023/10/05 04:30:42;;;;;;;7.27;3.70;;;;;;;;;;5093600;28;20446;-58
2023/10/05 04:33:10;;;;;;;6.47;3.87;;;;;;;;;;5093454;28;20460;-58
2023/10/05 04:35:45;;;;;;;6.53;3.90;;;;;;;;;;5093293;28;20482;-58
2023/10/05 04:38:12;;;;;;;6.97;3.50;;;;;;;;;;5093176;28;20547;-58
2023/10/05 04:40:39;;;;;;;9.63;4.80;;;;;;;;;;5093534;28;20840;-58
2023/10/05 04:43:11;;;;;;;8.37;3.90;;;;;;;;;;5093418;28;20526;-58
2023/10/05 04:45:42;;;;;;;4.97;3.40;;;;;;;;;;5092553;28;20934;-58
2023/10/05 04:48:12;;;;;;;10.00;4.20;;;;;;;;;;5093324;28;20485;-58
2023/10/05 04:50:40;;;;;;;8.67;3.90;;;;;;;;;;5093077;28;20446;-58
2023/10/05 04:53:09;;;;;;;7.70;4.20;;;;;;;;;;5093591;28;20507;-60
2023/10/05 04:55:41;;;;;;;7.70;3.63;;;;;;;;;;5093152;28;20442;-57
2023/10/05 04:58:30;;;;;;;8.13;4.43;;;;;;;;;;5092823;28;20981;-57
2023/10/05 05:01:18;;;;;;;5.93;3.27;;;;;;;;;;5093070;28;20810;-57
2023/10/05 05:03:56;;;;;;;5.27;3.70;;;;;;;;;;5093174;28;20450;-60
2023/10/05 05:06:25;;;;;;;9.40;4.43;;;;;;;;;;5093099;28;20537;-57
2023/10/05 05:08:53;;;;;;;5.90;4.33;;;;;;;;;;5093001;28;20478;-57
2023/10/05 05:11:20;;;;;;;8.63;4.10;;;;;;;;;;5092830;28;20450;-57
2023/10/05 05:13:46;;;;;;;7.27;3.93;;;;;;;;;;5092778;28;20533;-58
2023/10/05 05:16:15;;;;;;;7.73;3.93;;;;;;;;;;5092978;28;20868;-58
2023/10/05 05:18:42;;;;;;;8.03;3.90;;;;;;;;;;5092908;28;20443;-58
2023/10/05 05:21:11;;;;;;;7.50;4.47;;;;;;;;;;5092851;28;20537;-58
2023/10/05 05:23:39;;;;;;;7.87;4.43;;;;;;;;;;5092758;28;20465;-58
2023/10/05 05:26:09;;;;;;;7.40;4.57;;;;;;;;;;5092624;28;20447;-58
2023/10/05 05:28:37;;;;;;;7.20;4.37;;;;;;;;;;5092653;28;20470;-59
2023/10/05 05:31:14;;;;;;;8.83;4.40;;;;;;;;;;5092686;28;20449;-58
2023/10/05 05:33:44;;;;;;;6.60;3.87;;;;;;;;;;5093043;28;20445;-58
2023/10/05 05:36:12;;;;;;;6.27;4.03;;;;;;;;;;5092530;28;20447;-57
2023/10/05 05:38:39;;;;;;;9.60;4.50;;;;;;;;;;5092476;28;20442;-58
2023/10/05 05:41:11;;;;;;;8.77;3.67;;;;;;;;;;5092684;28;20446;-57
2023/10/05 05:43:39;;;;;;;6.13;3.30;;;;;;;;;;5092794;28;20442;-59
2023/10/05 05:46:10;;;;;;;5.70;3.90;;;;;;;;;;5092638;28;20442;-58
2023/10/05 05:48:37;;;;;;;6.97;3.67;;;;;;;;;;5092582;28;20439;-58
2023/10/05 05:51:10;;;;;;;8.10;3.60;;;;;;;;;;5092713;28;20545;-58
2023/10/05 05:53:37;;;;;;;7.77;3.97;;;;;;;;;;5092637;28;20929;-58
2023/10/05 05:56:04;;;;;;;7.07;3.93;;;;;;;;;;5092500;28;20801;-58
2023/10/05 05:58:31;;;;;;;6.20;4.17;;;;;;;;;;5095502;28;20909;-58
2023/10/05 06:00:59;;;;;;;9.20;3.83;;;;;;;;;;5096303;28;20446;-58
2023/10/05 06:03:27;;;;;;;4.27;3.73;;;;;;;;;;5096188;28;20443;-58
2023/10/05 06:05:54;;;;;;;8.20;5.13;;;;;;;;;;5095902;28;20445;-58
2023/10/05 06:08:22;;;;;;;5.87;3.63;;;;;;;;;;5096264;28;20446;-58
2023/10/05 06:10:51;;;;;;;8.10;4.10;;;;;;;;;;5096161;28;20442;-58
2023/10/05 06:13:19;;;;;;;7.03;4.37;;;;;;;;;;5095968;28;20442;-58
2023/10/05 06:15:46;;;;;;;9.20;4.67;;;;;;;;;;5095893;28;20443;-59
2023/10/05 06:18:13;;;;;;;7.63;3.60;;;;;;;;;;5095737;28;20484;-59
2023/10/05 06:20:40;;;;;;;7.17;5.13;;;;;;;;;;5096117;28;20515;-58
2023/10/05 06:23:07;;;;;;;8.67;4.77;;;;;;;;;;5095970;28;20443;-58
2023/10/05 06:25:36;;;;;;;5.60;4.10;;;;;;;;;;5095948;28;20537;-59
2023/10/05 06:28:02;;;;;;;7.50;4.30;;;;;;;;;;5095490;28;20995;-59
2023/10/05 06:30:32;;;;;;;7.00;3.97;;;;;;;;;;5095739;28;20533;-58
2023/10/05 06:32:59;;;;;;;5.20;3.80;;;;;;;;;;5095802;28;20876;-58
2023/10/05 06:35:26;;;;;;;6.10;3.93;;;;;;;;;;5095709;28;20447;-58
2023/10/05 06:37:53;;;;;;;6.40;4.97;;;;;;;;;;5095238;28;20482;-58
2023/10/05 06:40:22;;;;;;;8.80;4.60;;;;;;;;;;5095365;28;20447;-58
2023/10/05 06:42:51;;;;;;;9.27;4.17;;;;;;;;;;5095428;28;20545;-58
2023/10/05 06:45:19;;;;;;;10.93;5.10;;;;;;;;;;5095376;28;20454;-58
2023/10/05 06:47:46;;;;;;;4.87;3.47;;;;;;;;;;5095243;28;20447;-58
2023/10/05 06:50:13;;;;;;;5.50;3.37;;;;;;;;;;5095549;28;20782;-58
2023/10/05 06:52:43;;;;;;;13.20;4.27;;;;;;;;;;5095321;28;20874;-58
2023/10/05 06:55:12;;;;;;;8.57;3.43;;;;;;;;;;5095248;28;20450;-57
2023/10/05 06:57:39;;;;;;;7.93;3.90;;;;;;;;;;5095030;28;20471;-58
2023/10/05 07:00:13;;;;;;;10.53;5.60;;;;;;;;;;5094964;28;20503;-57
2023/10/05 07:02:40;;;;;;;8.37;4.53;;;;;;;;;;5095102;28;20471;-58
2023/10/05 07:05:08;;;;;;;6.80;4.23;;;;;;;;;;5094933;28;20805;-58
2023/10/05 07:07:35;;;;;;;6.43;4.33;;;;;;;;;;5094878;28;20539;-58
2023/10/05 07:10:03;;;;;;;5.00;4.03;;;;;;;;;;5094056;28;20806;-58
2023/10/05 07:12:31;;;;;;;7.00;4.57;;;;;;;;;;5094377;28;20519;-58
2023/10/05 07:14:58;;;;;;;6.83;4.30;;;;;;;;;;5104687;28;20434;-60
2023/10/05 07:17:26;;;;;;;10.40;6.33;;;;;;;;;;5115081;28;20470;-61
2023/10/05 07:19:54;;;;;;;21.40;15.80;;;;;;;;;;5115089;28;20446;-62
2023/10/05 07:22:21;;;;;;;7.73;4.83;;;;;;;;;;5114865;28;20952;-62
2023/10/05 07:24:48;;;;;;;5.97;4.23;;;;;;;;;;5114713;28;20448;-61
2023/10/05 07:27:15;;;;;;;6.87;4.23;;;;;;;;;;5114778;28;20452;-59
2023/10/05 07:29:45;;;;;;;9.23;5.10;;;;;;;;;;5114675;28;20473;-59
2023/10/05 07:32:12;;;;;;;5.37;3.80;;;;;;;;;;5114638;28;20438;-59
2023/10/05 07:34:41;;;;;;;12.83;4.60;;;;;;;;;;5114613;28;20446;-60
2023/10/05 07:37:10;;;;;;;8.90;4.90;;;;;;;;;;5114487;28;20473;-60
2023/10/05 07:39:37;;;;;;;7.10;4.27;;;;;;;;;;5114320;28;20507;-60
2023/10/05 07:42:04;;;;;;;8.50;4.10;;;;;;;;;;5114613;28;20449;-60
2023/10/05 07:44:31;;;;;;;5.33;3.40;;;;;;;;;;5114662;28;20478;-59
2023/10/05 07:46:59;;;;;;;9.63;4.00;;;;;;;;;;5114499;28;20536;-60
2023/10/05 07:49:26;;;;;;;7.07;3.83;;;;;;;;;;5113186;28;20442;-64
2023/10/05 07:51:54;;;;;;;8.20;3.57;;;;;;;;;;5094042;28;20538;-64
2023/10/05 07:54:21;;;;;;;7.03;4.07;;;;;;;;;;5093965;28;20438;-62
2023/10/05 07:56:48;;;;;;;5.70;3.40;;;;;;;;;;5093964;28;20454;-61
2023/10/05 07:59:15;;;;;;;6.60;3.40;;;;;;;;;;5093815;28;20573;-60
2023/10/05 08:01:43;;;;;;;5.87;3.97;;;;;;;;;;5093828;28;20481;-61
2023/10/05 08:04:11;;;;;;;6.20;3.40;;;;;;;;;;5093728;28;20438;-61
2023/10/05 08:06:38;;;;;;;5.07;3.80;;;;;;;;;;5094157;28;20443;-61
2023/10/05 08:09:06;;;;;;;5.70;3.50;;;;;;;;;;5093861;28;20491;-61
2023/10/05 08:11:34;;;;;;;5.17;3.07;;;;;;;;;;5093680;28;20446;-61
2023/10/05 08:14:01;;;;;;;6.50;4.10;;;;;;;;;;5093636;28;20836;-61
2023/10/05 08:16:30;;;;;;;5.90;3.13;;;;;;;;;;5093445;28;20955;-62
2023/10/05 08:18:57;;;;;;;10.13;4.10;;;;;;;;;;5093387;28;20484;-62
2023/10/05 08:21:24;;;;;;;10.43;3.13;;;;;;;;;;5093495;28;20508;-63
2023/10/05 08:23:51;;;;;;;5.83;3.40;;;;;;;;;;5093349;28;20457;-59
2023/10/05 08:26:20;;;;;;;4.30;3.33;;;;;;;;;;5093465;28;20868;-61
2023/10/05 08:28:49;;;;;;;5.43;3.10;;;;;;;;;;5093303;28;20554;-60
2023/10/05 08:31:22;;;;;;;7.73;3.60;;;;;;;;;;5093166;28;20442;-60
2023/10/05 08:33:50;;;;;;;8.50;3.43;;;;;;;;;;5093034;28;20457;-60
2023/10/05 08:36:17;;;;;;;5.93;3.63;;;;;;;;;;5093097;28;20451;-63
2023/10/05 08:38:47;;;;;;;7.87;3.10;;;;;;;;;;5093219;28;21100;-58
2023/10/05 08:41:17;;;;;;;4.90;3.23;;;;;;;;;;5093217;28;20450;-60
2023/10/05 08:43:46;;;;;;;8.00;3.30;;;;;;;;;;5093393;28;20451;-60
2023/10/05 08:46:14;;;;;;;9.03;2.77;;;;;;;;;;5092938;28;20537;-59
2023/10/05 08:48:41;;;;;;;7.90;3.03;;;;;;;;;;5093143;28;20443;-59
2023/10/05 08:51:10;;;;;;;5.70;3.17;;;;;;;;;;5092934;28;20957;-61
2023/10/05 08:53:41;;;;;;;4.20;3.20;;;;;;;;;;5092924;28;20442;-61
2023/10/05 08:56:12;;;;;;;6.17;2.90;;;;;;;;;;5092932;28;20443;-63
2023/10/05 08:58:41;;;;;;;5.60;2.60;;;;;;;;;;5092715;28;20764;-61
2023/10/05 09:01:23;;;;;;;5.23;3.30;;;;;;;;;;5092969;28;20802;-61
2023/10/05 09:03:53;;;;;;;8.70;2.70;;;;;;;;;;5092871;28;20956;-63
2023/10/05 09:06:20;;;;;;;7.27;3.30;;;;;;;;;;5092799;28;20537;-65
2023/10/05 09:09:01;;;;;;;5.47;2.77;;;;;;;;;;5092715;28;20454;-63
2023/10/05 09:11:31;;;;;;;8.37;3.27;;;;;;;;;;5092873;28;20443;-62
2023/10/05 09:13:58;;;;;;;4.67;3.10;;;;;;;;;;5092832;28;20448;-62
2023/10/05 09:16:32;;;;;;;9.07;3.37;;;;;;;;;;5092805;28;20483;-62
2023/10/05 09:19:00;;;;;;;4.40;2.97;;;;;;;;;;5092654;28;20937;-62
2023/10/05 09:21:43;;;;;;;4.00;2.60;;;;;;;;;;5092637;28;20900;-63
2023/10/05 09:24:19;;;;;;;8.70;3.17;;;;;;;;;;5092763;28;20443;-63
2023/10/05 09:26:50;;;;;;;6.23;2.90;;;;;;;;;;5092766;28;20434;-62
2023/10/05 09:29:21;;;;;;;6.20;3.00;;;;;;;;;;5092570;28;20561;-62
2023/10/05 09:31:54;;;;;;;5.17;2.53;;;;;;;;;;5092840;28;20474;-61
2023/10/05 09:34:36;;;;;;;4.27;2.53;;;;;;;;;;5096787;28;20449;-60
2023/10/05 09:37:05;;;;;;;3.60;2.80;;;;;;;;;;5096732;28;20848;-62
2023/10/05 09:39:33;;;;;;;6.10;2.95;;;;;;;;;;5095947;28;20521;-61
2023/10/05 09:42:01;;;;;;;8.77;3.00;;;;;;;;;;5096452;28;20283;-63
2023/10/05 09:44:30;;;;;;;5.77;2.97;;;;;;;;;;5096432;28;20450;-60
2023/10/05 09:47:00;;;;;;;9.20;3.60;;;;;;;;;;5096524;28;20443;-67
2023/10/05 09:49:29;;;;;;;8.87;3.23;;;;;;;;;;5096433;28;20507;-58
2023/10/05 09:51:57;;;;;;;7.97;3.07;;;;;;;;;;5096307;28;20438;-58
2023/10/05 09:54:27;;;;;;;9.30;3.10;;;;;;;;;;5096160;28;20450;-58
2023/10/05 09:56:54;;;;;;;3.07;2.77;;;;;;;;;;5096147;28;20524;-58
2023/10/05 09:59:25;;;;;;;6.40;3.53;;;;;;;;;;5095702;28;20484;-58
2023/10/05 10:01:53;;;;;;;5.43;3.07;;;;;;;;;;5096232;28;20442;-60
2023/10/05 10:04:35;;;;;;;5.30;3.50;;;;;;;;;;5096142;28;20442;-62
2023/10/05 10:07:03;;;;;;;5.50;2.90;;;;;;;;;;5096003;28;20454;-60
2023/10/05 10:09:32;;;;;;;5.57;3.10;;;;;;;;;;5095043;28;21002;-61
2023/10/05 10:12:00;;;;;;;7.53;3.33;;;;;;;;;;5096240;28;20446;-62
2023/10/05 10:14:27;;;;;;;8.13;2.90;;;;;;;;;;5095689;28;20450;-58
2023/10/05 10:17:02;;;;;;;7.53;3.17;;;;;;;;;;5095791;28;20497;-59
2023/10/05 10:19:45;;;;;;;5.03;2.53;;;;;;;;;;5095586;28;20539;-59
2023/10/05 10:22:12;;;;;;;5.77;3.73;;;;;;;;;;5095522;28;20456;-60
2023/10/05 10:24:40;;;;;;;5.10;2.73;;;;;;;;;;5096013;28;20438;-61
2023/10/05 10:27:12;;;;;;;3.97;2.70;;;;;;;;;;5096016;28;20491;-59
2023/10/05 10:29:43;;;;;;;4.13;2.73;;;;;;;;;;5095665;28;20471;-59
2023/10/05 10:32:18;;;;;;;5.90;3.27;;;;;;;;;;5095617;28;20546;-59
2023/10/05 10:34:55;;;;;;;6.63;2.70;;;;;;;;;;5096153;28;20453;-59
2023/10/05 10:37:39;;;;;;;7.87;2.60;;;;;;;;;;5095643;28;20533;-59
2023/10/05 10:40:12;;;;;;;5.00;3.07;;;;;;;;;;5095417;28;20481;-59
2023/10/05 10:42:49;;;;;;;3.63;2.57;;;;;;;;;;5095244;28;20488;-60
2023/10/05 10:45:23;;;;;;;5.63;2.40;;;;;;;;;;5094367;28;20999;-59
2023/10/05 10:47:50;;;;;;;8.83;2.77;;;;;;;;;;5095424;28;20442;-59
2023/10/05 10:50:22;;;;;;;9.87;2.57;;;;;;;;;;5095308;28;20472;-59
2023/10/05 10:52:50;;;;;;;4.53;3.00;;;;;;;;;;5095205;28;20443;-59
2023/10/05 10:55:20;;;;;;;5.67;2.97;;;;;;;;;;5095093;28;20525;-58
2023/10/05 10:57:48;;;;;;;4.00;2.73;;;;;;;;;;5095192;28;20525;-60
2023/10/05 11:03:09;;;;;;;3.53;2.73;;;;;;;;;;5094792;28;20442;-59
2023/10/05 11:05:41;;;;;;;3.57;2.60;;;;;;;;;;5094787;28;20442;-62
2023/10/05 11:08:11;;;;;;;6.30;3.03;;;;;;;;;;5095126;28;20458;-59
2023/10/05 11:10:40;;;;;;;4.70;2.40;;;;;;;;;;5095107;28;20442;-60
2023/10/05 11:13:14;;;;;;;5.33;2.60;;;;;;;;;;5094749;28;20533;-60
2023/10/05 11:15:50;;;;;;;5.00;2.40;;;;;;;;;;5094731;28;20553;-57
2023/10/05 11:18:18;;;;;;;3.20;2.33;;;;;;;;;;5094455;28;20480;-58
2023/10/05 11:20:52;;;;;;;5.13;2.90;;;;;;;;;;5094378;28;20447;-56
2023/10/05 11:23:25;;;;;;;5.20;2.83;;;;;;;;;;5094700;28;20454;-56
2023/10/05 11:25:52;;;;;;;4.43;2.53;;;;;;;;;;5094648;28;20447;-57
2023/10/05 11:28:25;;;;;;;6.23;2.87;;;;;;;;;;5094020;28;20535;-56
2023/10/05 11:30:52;;;;;;;2.97;2.60;;;;;;;;;;5094254;28;20439;-58
2023/10/05 11:33:20;;;;;;;4.57;3.20;;;;;;;;;;5094476;28;20445;-57
2023/10/05 11:35:52;;;;;;;6.63;3.20;;;;;;;;;;5094142;28;20983;-59
2023/10/05 11:38:20;;;;;;;5.37;2.70;;;;;;;;;;5094303;28;20474;-59
2023/10/05 11:40:53;;;;;;;2.90;2.60;;;;;;;;;;5094263;28;20447;-59
2023/10/05 11:43:20;;;;;;;6.10;3.60;;;;;;;;;;5096872;28;20442;-57
2023/10/05 11:46:00;;;;;;;5.33;2.83;;;;;;;;;;5106765;28;20468;-60
2023/10/05 11:48:36;;;;;;;7.90;2.97;;;;;;;;;;5114684;28;20812;-57
2023/10/05 11:51:09;;;;;;;5.07;2.97;;;;;;;;;;5114542;28;20535;-57
2023/10/05 11:53:36;;;;;;;5.43;2.43;;;;;;;;;;5114372;28;20446;-58
2023/10/05 11:56:04;;;;;;;9.53;3.33;;;;;;;;;;5114004;28;20893;-57
2023/10/05 11:58:36;;;;;;;6.90;4.47;;;;;;;;;;5113298;28;20455;-59
2023/10/05 12:01:03;;;;;;;5.57;3.17;;;;;;;;;;5114301;28;20229;-59
2023/10/05 12:03:30;;;;;;;4.13;2.50;;;;;;;;;;5114416;28;20450;-59
2023/10/05 12:06:00;;;;;;;7.53;3.03;;;;;;;;;;5111052;28;20458;-59
2023/10/05 12:08:29;;;;;;;4.23;2.90;;;;;;;;;;5103060;28;20453;-59
2023/10/05 12:10:59;;;;;;;4.50;3.30;;;;;;;;;;5103324;28;20443;-59
2023/10/05 12:13:26;;;;;;;6.07;2.97;;;;;;;;;;5100045;28;20877;-59
2023/10/05 12:15:52;;;;;;;6.67;3.27;;;;;;;;;;5093727;28;20886;-59
2023/10/05 12:18:19;;;;;;;6.73;3.10;;;;;;;;;;5093584;28;20533;-59
2023/10/05 12:20:47;;;;;;;4.70;4.27;;;;;;;;;;5094070;28;20787;-58
2023/10/05 12:23:14;;;;;;;4.03;3.63;;;;;;;;;;5093734;28;20451;-59
2023/10/05 12:25:44;;;;;;;6.23;3.07;;;;;;;;;;5093672;28;20465;-59
2023/10/05 12:28:11;;;;;;;14.70;5.40;;;;;;;;;;5105936;28;20854;-59
2023/10/05 12:30:40;;;;;;;12.60;5.23;;;;;;;;;;5113974;28;20485;-59
2023/10/05 12:33:08;;;;;;;3.50;2.90;;;;;;;;;;5113687;28;20459;-60
2023/10/05 12:35:37;;;;;;;6.47;3.40;;;;;;;;;;5113900;28;20483;-59
2023/10/05 12:38:06;;;;;;;5.73;3.10;;;;;;;;;;5114030;28;20452;-59
2023/10/05 12:40:34;;;;;;;4.70;3.40;;;;;;;;;;5113574;28;20980;-59
2023/10/05 12:43:03;;;;;;;6.83;3.03;;;;;;;;;;5113713;28;20446;-59
2023/10/05 12:45:30;;;;;;;4.67;2.90;;;;;;;;;;5113591;28;20445;-58
2023/10/05 12:47:57;;;;;;;4.90;3.10;;;;;;;;;;5113338;28;20793;-58
2023/10/05 12:50:26;;;;;;;5.10;2.80;;;;;;;;;;5113911;28;20481;-60
2023/10/05 12:52:53;;;;;;;5.10;3.10;;;;;;;;;;5113533;28;20445;-59
2023/10/05 12:55:20;;;;;;;4.73;2.87;;;;;;;;;;5113453;28;20442;-59
2023/10/05 12:57:50;;;;;;;6.97;3.23;;;;;;;;;;5113507;28;20449;-58
2023/10/05 13:00:25;;;;;;;10.83;3.47;;;;;;;;;;5113230;28;20478;-59
2023/10/05 13:02:53;;;;;;;5.50;3.13;;;;;;;;;;5113678;28;20796;-59
2023/10/05 13:05:21;;;;;;;5.17;3.43;;;;;;;;;;5113517;28;20485;-58
2023/10/05 13:07:48;;;;;;;4.00;3.60;;;;;;;;;;5112629;28;20446;-59
2023/10/05 13:10:21;;;;;;;5.18;3.80;;;;;;;;;;5113089;28;20545;-59
2023/10/05 13:12:49;;;;;;;4.83;3.60;;;;;;;;;;5101363;28;20188;-60
2023/10/05 13:15:17;;;;;;;7.63;3.80;;;;;;;;;;5102175;28;20443;-59
2023/10/05 13:17:46;;;;;;;4.47;3.30;;;;;;;;;;5103423;28;20453;-59
2023/10/05 13:20:15;;;;;;;6.10;3.77;;;;;;;;;;5103008;28;21027;-59
2023/10/05 13:22:44;;;;;;;3.97;3.57;;;;;;;;;;5092934;28;20450;-59
2023/10/05 13:25:11;;;;;;;10.83;4.20;;;;;;;;;;5092702;28;20477;-59
2023/10/05 13:27:39;;;;;;;5.27;3.83;;;;;;;;;;5092683;28;20526;-59
2023/10/05 13:30:08;;;;;;;4.93;3.33;;;;;;;;;;5092881;28;20957;-59
2023/10/05 13:32:37;;;;;;;5.47;3.87;;;;;;;;;;5098186;28;20846;-59
2023/10/05 13:35:10;;;;;;;4.87;3.83;;;;;;;;;;5103638;28;20437;-59
2023/10/05 13:37:37;;;;;;;3.47;2.53;;;;;;;;;;5103268;28;20520;-59
2023/10/05 13:40:05;;;;;;;3.03;1.57;;;;;;;;;;5102795;28;20516;-57
2023/10/05 13:42:35;;;;;;;3.47;1.50;;;;;;;;;;5101737;28;20471;-58
2023/10/05 13:45:09;;;;;;;1.60;1.13;;;;;;;;;;5102202;28;20839;-59
2023/10/05 13:47:36;;;;;;;2.40;1.17;;;;;;;;;;5101949;28;20442;-58
2023/10/05 13:50:07;;;;;;;2.27;1.30;;;;;;;;;;5101806;28;20528;-59
2023/10/05 13:52:38;;;;;;;1.20;1.07;;;;;;;;;;5101360;28;20444;-58
2023/10/05 13:55:07;;;;;;;1.67;1.30;;;;;;;;;;5101668;28;20444;-58
2023/10/05 13:57:36;;;;;;;0.90;0.90;;;;;;;;;;5101449;28;20449;-58
2023/10/05 14:00:05;;;;;;;2.20;1.10;;;;;;;;;;5101674;28;20564;-59
2023/10/05 14:02:32;;;;;;;4.13;1.20;;;;;;;;;;5102925;28;20936;-58
2023/10/05 14:04:59;;;;;;;1.80;1.03;;;;;;;;;;5104705;28;20932;-59
2023/10/05 14:07:26;;;;;;;2.60;1.20;;;;;;;;;;5113179;28;20540;-59
2023/10/05 14:09:56;;;;;;;1.70;1.10;;;;;;;;;;5112993;28;20458;-59
2023/10/05 14:12:22;;;;;;;0.87;0.87;;;;;;;;;;5112721;28;20442;-58
2023/10/05 14:14:49;;;;;;;0.80;0.70;;;;;;;;;;5112814;28;20528;-59
2023/10/05 14:17:16;;;;;;;1.73;1.00;;;;;;;;;;5112501;28;20481;-59
2023/10/05 14:19:43;;;;;;;1.40;1.17;;;;;;;;;;5115982;28;20497;-58
2023/10/05 14:22:12;;;;;;;1.47;1.10;;;;;;;;;;5116449;28;20537;-59
2023/10/05 14:24:41;;;;;;;3.93;1.00;;;;;;;;;;5116310;28;20846;-59
2023/10/05 14:27:10;;;;;;;1.20;1.10;;;;;;;;;;5116190;28;20963;-59
2023/10/05 14:29:37;;;;;;;1.13;0.90;;;;;;;;;;5116033;28;20474;-59
2023/10/05 14:32:05;;;;;;;1.70;0.80;;;;;;;;;;5116111;28;20445;-59
2023/10/05 14:34:33;;;;;;;2.00;1.13;;;;;;;;;;5116263;28;20468;-59
2023/10/05 14:37:03;;;;;;;1.27;1.00;;;;;;;;;;5115991;28;20445;-59
2023/10/05 14:39:34;;;;;;;1.77;1.00;;;;;;;;;;5116050;28;20526;-59
2023/10/05 14:42:01;;;;;;;1.17;0.93;;;;;;;;;;5116023;28;20438;-59
2023/10/05 14:44:29;;;;;;;3.67;1.20;;;;;;;;;;5115811;28;20480;-59
2023/10/05 14:46:59;;;;;;;1.20;0.97;;;;;;;;;;5116060;28;20450;-59
2023/10/05 14:49:26;;;;;;;1.90;1.37;;;;;;;;;;5115717;28;20869;-59
2023/10/05 14:51:53;;;;;;;1.60;1.50;;;;;;;;;;5115889;28;20532;-59
2023/10/05 14:54:21;;;;;;;2.23;1.97;;;;;;;;;;5115780;28;20442;-59
2023/10/05 14:56:48;;;;;;;1.80;1.70;;;;;;;;;;5115609;28;20872;-59
2023/10/05 14:59:15;;;;;;;2.17;1.57;;;;;;;;;;5115427;28;20518;-59
2023/10/05 15:01:45;;;;;;;1.20;1.10;;;;;;;;;;5115642;28;20449;-59